createdAt,value
2019-05-12T00:04:18.935Z,100755.23
2019-05-12T00:09:22.431Z,100754.09
2019-05-12T00:14:28.209Z,100761.95
2019-05-12T00:19:31.731Z,100761.95
2019-05-12T00:24:35.509Z,100766.47
2019-05-12T00:29:39.264Z,100766.47
2019-05-12T00:34:43.034Z,100772.91
2019-05-12T00:39:47.819Z,100785.90
2019-05-12T00:44:51.739Z,100785.90
2019-05-12T00:49:55.528Z,100810.17
2019-05-12T00:54:59.338Z,100818.97
2019-05-12T01:00:03.270Z,100818.97
2019-05-12T01:05:08.602Z,100832.66
2019-05-12T01:10:12.680Z,100839.49
2019-05-12T01:15:17.777Z,100839.49
2019-05-12T01:20:21.780Z,100837.55
2019-05-12T01:25:25.733Z,100852.70
2019-05-12T01:30:29.546Z,100852.86
2019-05-12T01:35:33.401Z,100850.30
2019-05-12T01:40:39.395Z,100860.06
2019-05-12T01:45:42.875Z,100867.48
2019-05-12T01:55:51.094Z,100885.72
2019-05-12T02:00:54.866Z,100885.72
2019-05-12T02:06:00.050Z,100888.17
2019-05-12T02:11:21.696Z,100888.17
2019-05-12T02:16:28.060Z,100894.53
2019-05-12T02:21:31.051Z,100902.70
2019-05-12T02:26:34.875Z,100910.84
2019-05-12T02:31:39.745Z,100923.91
2019-05-12T02:36:44.805Z,100923.91
2019-05-12T02:41:49.099Z,100932.95
2019-05-12T02:46:55.278Z,100941.13
2019-05-12T02:51:58.339Z,100953.91
2019-05-12T02:57:04.332Z,100953.91
2019-05-12T03:02:07.848Z,100969.92
2019-05-12T03:07:15.270Z,100971.00
2019-05-12T03:12:17.741Z,100965.25
2019-05-12T03:17:24.923Z,100960.00
2019-05-12T03:22:27.147Z,100960.00
2019-05-12T03:27:30.965Z,100960.54
2019-05-12T03:32:37.878Z,100981.50
2019-05-12T03:37:40.247Z,100991.77
2019-05-12T03:42:44.577Z,100998.97
2019-05-12T03:47:48.522Z,101004.94
2019-05-12T03:52:52.301Z,101008.56
2019-05-12T03:57:56.120Z,101008.56
2019-05-12T04:02:59.988Z,101048.02
2019-05-12T04:08:05.530Z,101048.02
2019-05-12T04:13:09.472Z,101072.69
2019-05-12T04:18:15.964Z,101081.34
2019-05-12T04:23:18.752Z,101081.34
2019-05-12T04:28:24.588Z,101094.30
2019-05-12T04:33:28.036Z,101119.16
2019-05-12T04:38:35.261Z,101130.09
2019-05-12T04:43:37.381Z,101152.67
2019-05-12T04:48:41.241Z,101167.19
2019-05-12T04:53:45.163Z,101171.86
2019-05-12T04:58:49.017Z,101175.25
2019-05-12T05:03:54.541Z,101186.75
2019-05-12T05:08:58.528Z,101186.67
2019-05-12T05:14:04.226Z,101196.00
2019-05-12T05:19:07.843Z,101213.54
2019-05-12T05:24:14.042Z,101216.71
2019-05-12T05:29:17.228Z,101229.96
2019-05-12T05:34:21.092Z,101229.96
2019-05-12T05:39:24.956Z,101229.38
2019-05-12T05:44:29.160Z,101242.81
2019-05-12T05:49:36.570Z,101253.23
2019-05-12T05:54:40.367Z,101270.70
2019-05-12T05:59:44.702Z,101270.70
2019-05-12T06:04:50.213Z,101293.74
2019-05-12T06:09:54.293Z,101302.67
2019-05-12T06:14:59.831Z,101309.28
2019-05-12T06:20:04.459Z,101316.38
2019-05-12T06:25:08.690Z,101316.38
2019-05-12T06:30:14.808Z,101332.70
2019-05-12T06:35:17.949Z,101341.52
2019-05-12T06:40:23.729Z,101342.97
2019-05-12T06:45:28.381Z,101339.69
2019-05-12T06:50:36.933Z,101349.48
2019-05-12T06:55:39.457Z,101345.45
2019-05-12T07:00:43.891Z,101345.45
2019-05-12T07:05:48.246Z,101375.11
2019-05-12T07:11:01.807Z,101375.11
2019-05-12T07:15:59.183Z,101376.36
2019-05-12T07:21:04.114Z,101381.52
2019-05-12T07:26:13.975Z,101381.52
2019-05-12T07:31:14.206Z,101386.09
2019-05-12T07:36:18.533Z,101398.63
2019-05-12T07:41:23.778Z,101403.03
2019-05-12T07:46:28.088Z,101407.66
2019-05-12T07:51:38.783Z,101400.17
2019-05-12T07:56:40.684Z,101409.13
2019-05-12T08:01:50.133Z,101409.13
2019-05-12T08:06:48.643Z,101419.08
2019-05-12T08:11:54.061Z,101419.68
2019-05-12T08:17:02.090Z,101425.31
2019-05-12T08:22:04.261Z,101432.91
2019-05-12T08:27:08.442Z,101431.00
2019-05-12T08:32:15.978Z,101431.00
2019-05-12T08:37:17.811Z,101460.52
2019-05-12T08:42:23.852Z,101458.81
2019-05-12T08:47:28.969Z,101459.39
2019-05-12T08:52:37.029Z,101463.50
2019-05-12T08:57:40.726Z,101479.16
2019-05-12T09:02:48.855Z,101485.97
2019-05-12T09:07:49.162Z,101481.83
2019-05-12T09:12:54.167Z,101489.38
2019-05-12T09:17:58.108Z,101485.87
2019-05-12T09:23:02.751Z,101480.40
2019-05-12T09:28:07.467Z,101480.58
2019-05-12T09:33:11.257Z,101490.09
2019-05-12T09:38:21.171Z,101492.48
2019-05-12T09:43:20.578Z,101504.93
2019-05-12T09:48:24.756Z,101506.52
2019-05-12T09:53:28.870Z,101514.27
2019-05-12T09:58:33.683Z,101514.27
2019-05-12T10:03:40.026Z,101508.23
2019-05-12T10:08:43.578Z,101508.23
2019-05-12T10:13:47.468Z,101520.75
2019-05-12T10:18:52.644Z,101519.02
2019-05-12T10:24:00.501Z,101520.28
2019-05-12T10:29:14.095Z,101520.28
2019-05-12T10:34:19.716Z,101523.94
2019-05-12T10:39:24.399Z,101520.66
2019-05-12T10:44:29.898Z,101520.66
2019-05-12T10:49:34.382Z,101525.19
2019-05-12T10:54:38.203Z,101521.52
2019-05-12T10:59:45.260Z,101521.52
2019-05-12T11:04:48.092Z,101520.56
2019-05-12T11:09:54.217Z,101530.06
2019-05-12T11:15:01.329Z,101536.58
2019-05-12T11:20:04.184Z,101532.17
2019-05-12T11:25:08.035Z,101532.17
2019-05-12T11:30:13.190Z,101534.20
2019-05-12T11:35:17.815Z,101532.17
2019-05-12T11:40:23.912Z,101544.38
2019-05-12T11:45:28.077Z,101545.72
2019-05-12T11:50:31.881Z,101545.62
2019-05-12T11:55:35.705Z,101561.16
2019-05-12T12:00:43.968Z,101545.52
2019-05-12T12:05:47.131Z,101566.44
2019-05-12T12:10:50.949Z,101561.48
2019-05-12T12:15:54.877Z,101571.55
2019-05-12T12:21:04.268Z,101571.55
2019-05-12T12:26:04.366Z,101580.48
2019-05-12T12:31:08.231Z,101588.82
2019-05-12T12:36:14.438Z,101583.83
2019-05-12T12:41:17.883Z,101598.83
2019-05-12T12:46:25.495Z,101599.00
2019-05-12T12:51:29.300Z,101602.38
2019-05-12T12:56:34.064Z,101597.45
2019-05-12T13:01:38.053Z,101599.48
2019-05-12T13:06:43.718Z,101599.48
2019-05-12T13:11:47.320Z,101597.66
2019-05-12T13:16:54.790Z,101617.35
2019-05-12T13:21:56.550Z,101616.22
2019-05-12T13:27:00.332Z,101611.48
2019-05-12T13:32:04.091Z,101617.18
2019-05-12T13:37:09.322Z,101616.77
2019-05-12T13:42:13.733Z,101613.11
2019-05-12T13:47:17.499Z,101617.14
2019-05-12T13:52:26.296Z,101616.00
2019-05-12T13:57:26.845Z,101612.24
2019-05-12T14:02:30.898Z,101612.24
2019-05-12T14:07:34.655Z,101623.11
2019-05-12T14:12:38.409Z,101626.28
2019-05-12T14:17:43.546Z,101626.28
2019-05-12T14:22:47.615Z,101633.98
2019-05-12T14:27:53.431Z,101633.98
2019-05-12T14:32:59.103Z,101636.77
2019-05-12T14:38:03.849Z,101636.77
2019-05-12T14:43:10.465Z,101635.22
2019-05-12T14:48:13.831Z,101635.22
2019-05-12T14:53:17.684Z,101637.42
2019-05-12T14:58:23.766Z,101653.20
2019-05-12T15:03:27.096Z,101644.53
2019-05-12T15:08:36.275Z,101638.29
2019-05-12T15:13:36.345Z,101638.29
2019-05-12T15:18:46.566Z,101646.90
2019-05-12T15:23:45.589Z,101637.47
2019-05-12T15:28:49.369Z,101650.02
2019-05-12T15:33:53.152Z,101651.19
2019-05-12T15:38:58.842Z,101660.41
2019-05-12T15:44:03.434Z,101660.41
2019-05-12T15:49:08.942Z,101671.87
2019-05-12T15:54:14.590Z,101668.19
2019-05-12T15:59:18.533Z,101675.70
2019-05-12T16:04:22.286Z,101677.41
2019-05-12T16:09:26.043Z,101677.41
2019-05-12T16:14:30.389Z,101681.46
2019-05-12T16:19:35.394Z,101675.73
2019-05-12T16:24:43.503Z,101680.98
2019-05-12T16:29:49.836Z,101677.14
2019-05-12T16:34:50.205Z,101683.49
2019-05-12T16:39:54.174Z,101685.11
2019-05-12T16:45:06.137Z,101683.82
2019-05-12T16:50:06.284Z,101683.82
2019-05-12T16:55:09.099Z,101689.27
2019-05-12T17:00:13.903Z,101699.06
2019-05-12T17:05:20.378Z,101701.59
2019-05-12T17:10:24.396Z,101704.56
2019-05-12T17:15:28.353Z,101712.58
2019-05-12T17:20:33.379Z,101712.86
2019-05-12T17:25:37.331Z,101715.33
2019-05-12T17:30:43.539Z,101723.52
2019-05-12T17:35:46.646Z,101723.52
2019-05-12T17:40:58.793Z,101721.44
2019-05-12T17:46:01.206Z,101721.44
2019-05-12T17:51:03.277Z,101740.07
2019-05-12T17:56:07.036Z,101747.19
2019-05-12T18:01:10.802Z,101755.16
2019-05-12T18:06:14.563Z,101762.95
2019-05-12T18:11:18.323Z,101762.95
2019-05-12T18:16:24.851Z,101771.02
2019-05-12T18:21:31.023Z,101771.02
2019-05-12T18:26:33.977Z,101776.02
2019-05-12T18:31:37.900Z,101789.28
2019-05-12T18:36:41.667Z,101803.42
2019-05-12T18:41:45.552Z,101813.50
2019-05-12T18:46:49.437Z,101824.25
2019-05-12T18:51:55.227Z,101824.25
2019-05-12T18:57:04.208Z,101845.40
2019-05-12T19:02:04.423Z,101840.41
2019-05-12T19:07:08.194Z,101840.41
2019-05-12T19:12:17.966Z,101869.31
2019-05-12T19:17:18.429Z,101877.22
2019-05-12T19:22:24.207Z,101887.28
2019-05-12T19:27:27.746Z,101896.70
2019-05-12T19:32:33.613Z,101901.70
2019-05-12T19:37:37.033Z,101901.70
2019-05-12T19:42:40.838Z,101919.77
2019-05-12T19:47:44.653Z,101921.97
2019-05-12T19:52:48.542Z,101930.05
2019-05-12T19:57:53.950Z,101931.97
2019-05-12T20:02:57.807Z,101931.10
2019-05-12T20:08:04.007Z,101931.97
2019-05-12T20:13:07.295Z,101946.67
2019-05-12T20:18:11.172Z,101946.67
2019-05-12T20:23:15.060Z,101957.47
2019-05-12T20:28:18.822Z,101962.53
2019-05-12T20:33:24.040Z,101969.36
2019-05-12T20:38:34.225Z,101972.34
2019-05-12T20:43:38.178Z,101975.13
2019-05-12T20:48:39.153Z,101979.06
2019-05-12T20:53:43.596Z,101980.41
2019-05-12T20:58:47.598Z,101984.73
2019-05-12T21:03:51.537Z,101985.89
2019-05-12T21:08:56.560Z,101985.89
2019-05-12T21:14:00.913Z,101988.10
2019-05-12T21:19:10.820Z,101993.88
2019-05-12T21:24:13.913Z,101992.91
2019-05-12T21:29:18.983Z,101992.91
2019-05-12T21:34:25.356Z,102001.17
2019-05-12T21:39:28.374Z,102007.42
2019-05-12T21:44:32.176Z,102010.02
2019-05-12T21:49:35.970Z,102010.02
2019-05-12T21:54:39.974Z,102014.06
2019-05-12T21:59:43.733Z,102025.79
2019-05-12T22:04:47.645Z,102025.69
2019-05-12T22:09:53.707Z,102029.83
2019-05-12T22:14:57.152Z,102038.77
2019-05-12T22:20:08.928Z,102036.17
2019-05-12T22:25:09.579Z,102041.36
2019-05-12T22:30:13.490Z,102033.95
2019-05-12T22:35:22.052Z,102046.36
2019-05-12T22:40:23.613Z,102046.08
2019-05-12T22:45:27.709Z,102052.32
2019-05-12T22:50:32.981Z,102052.23
2019-05-12T22:55:37.020Z,102056.65
2019-05-12T23:00:40.800Z,102064.91
2019-05-12T23:05:44.575Z,102073.28
2019-05-12T23:10:51.974Z,102063.91
2019-05-12T23:15:53.984Z,102063.91
2019-05-12T23:20:57.767Z,102081.94
2019-05-12T23:26:02.052Z,102093.95
2019-05-12T23:31:05.994Z,102093.95
2019-05-12T23:36:15.823Z,102096.35
2019-05-12T23:41:15.310Z,102096.35
2019-05-12T23:46:19.102Z,102108.71
2019-05-12T23:51:23.549Z,102111.88
2019-05-12T23:56:27.462Z,102111.88
